Time;durP1;ratioP1;P1;durP2;ratioP2;P2;SDS_P1;SDS_P2;PMS_P1;PMS_P2;Temp;Humidity;BMP_temperature;BMP_pressure;BME280_temperature;BME280_humidity;BME280_pressure;Samples;Min_cycle;Max_cycle;Signal;HPM_P1;HPM_P2
2022/07/24 00:01:51;;;;;;;991.17;904.92;;;22.40;99.90;;;;;;5011497;28;20227;-78
2022/07/24 00:04:18;;;;;;;1006.92;919.75;;;22.40;99.90;;;;;;5010726;28;20651;-80
2022/07/24 00:06:45;;;;;;;1002.60;914.53;;;22.30;99.90;;;;;;5010280;28;20656;-79
2022/07/24 00:09:11;;;;;;;986.85;899.95;;;22.30;99.90;;;;;;5013214;28;20216;-79
2022/07/24 00:11:38;;;;;;;993.40;906.22;;;22.30;99.90;;;;;;5012671;28;20208;-79
2022/07/24 00:14:05;;;;;;;985.03;898.67;;;22.30;99.90;;;;;;5009556;28;20205;-78
2022/07/24 00:16:32;;;;;;;997.90;911.20;;;22.30;99.90;;;;;;5006836;28;20204;-78
2022/07/24 00:19:00;;;;;;;998.88;912.28;;;22.20;99.90;;;;;;5009843;28;20192;-79
2022/07/24 00:21:27;;;;;;;997.22;910.35;;;22.20;99.90;;;;;;5012507;28;20212;-79
2022/07/24 00:23:54;;;;;;;1000.03;913.22;;;22.20;99.90;;;;;;5010148;28;20534;-78
2022/07/24 00:26:21;;;;;;;1002.92;916.33;;;22.20;99.90;;;;;;5014486;28;20208;-78
2022/07/24 00:28:49;;;;;;;984.47;898.50;;;22.20;99.90;;;;;;5013786;28;20648;-78
2022/07/24 00:31:17;;;;;;;982.47;896.63;;;22.20;99.90;;;;;;5005127;28;20220;-77
2022/07/24 00:33:43;;;;;;;992.70;906.42;;;22.20;99.90;;;;;;5010473;28;20201;-79
2022/07/24 00:36:11;;;;;;;992.28;905.67;;;22.10;99.90;;;;;;5006983;28;20211;-78
2022/07/24 00:38:38;;;;;;;987.17;900.65;;;22.10;99.90;;;;;;5004763;28;20201;-79
2022/07/24 00:41:05;;;;;;;980.92;894.63;;;22.10;99.90;;;;;;5003636;28;20549;-79
2022/07/24 00:43:32;;;;;;;980.05;893.60;;;22.10;99.90;;;;;;5009985;28;20204;-78
2022/07/24 00:45:59;;;;;;;979.72;893.25;;;22.10;99.90;;;;;;4998333;28;20672;-78
2022/07/24 00:48:25;;;;;;;992.05;904.70;;;22.10;99.90;;;;;;5005269;28;20232;-78
2022/07/24 00:50:52;;;;;;;985.38;898.40;;;22.00;99.90;;;;;;5003563;28;20220;-78
2022/07/24 00:53:21;;;;;;;997.67;910.25;;;22.00;99.90;;;;;;5007005;28;20203;-79
2022/07/24 00:55:47;;;;;;;984.53;897.58;;;22.00;99.90;;;;;;5006699;28;20199;-78
2022/07/24 00:58:14;;;;;;;978.42;891.35;;;22.00;99.90;;;;;;5008105;28;20548;-78
2022/07/24 01:00:41;;;;;;;985.10;897.80;;;22.00;99.90;;;;;;5008304;28;20802;-78
2022/07/24 01:03:08;;;;;;;982.95;895.58;;;22.00;99.90;;;;;;4997097;28;20691;-78
2022/07/24 01:05:34;;;;;;;983.70;896.17;;;21.90;99.90;;;;;;5006818;28;20204;-79
2022/07/24 01:08:02;;;;;;;982.25;894.97;;;21.90;99.90;;;;;;5006087;28;20204;-78
2022/07/24 01:10:30;;;;;;;980.53;893.15;;;21.90;99.90;;;;;;5009547;28;20269;-78
2022/07/24 01:12:58;;;;;;;986.95;899.47;;;21.90;99.90;;;;;;5004008;28;20192;-78
2022/07/24 01:15:25;;;;;;;965.13;878.28;;;21.90;99.90;;;;;;5006953;28;20207;-78
2022/07/24 01:17:51;;;;;;;976.38;888.92;;;21.90;99.90;;;;;;5011007;28;20208;-78
2022/07/24 01:20:18;;;;;;;975.60;888.38;;;21.80;99.90;;;;;;5011204;28;20196;-79
2022/07/24 01:22:47;;;;;;;976.75;889.72;;;21.80;99.90;;;;;;5006071;28;20222;-78
2022/07/24 01:25:14;;;;;;;965.63;878.85;;;21.80;99.90;;;;;;4999756;28;20204;-79
2022/07/24 01:27:41;;;;;;;978.92;891.63;;;21.80;99.90;;;;;;5006394;28;20207;-79
2022/07/24 01:30:09;;;;;;;964.20;877.60;;;21.80;99.90;;;;;;5005713;28;20730;-77
2022/07/24 01:32:36;;;;;;;973.75;886.78;;;21.80;99.90;;;;;;5007221;28;20200;-76
2022/07/24 01:35:03;;;;;;;971.70;884.75;;;21.80;99.90;;;;;;5005514;28;20192;-78
2022/07/24 01:37:29;;;;;;;980.88;893.58;;;21.70;99.90;;;;;;5009465;28;20227;-78
2022/07/24 01:39:57;;;;;;;963.05;876.33;;;21.70;99.90;;;;;;5009649;28;21324;-78
2022/07/24 01:42:25;;;;;;;952.22;865.90;;;21.70;99.90;;;;;;5011048;28;20223;-79
2022/07/24 01:44:52;;;;;;;974.65;887.58;;;21.70;99.90;;;;;;5009949;28;20196;-78
2022/07/24 01:47:18;;;;;;;954.67;867.90;;;21.70;99.90;;;;;;5010037;28;20296;-80
2022/07/24 01:49:45;;;;;;;980.38;892.90;;;21.70;99.90;;;;;;5008266;28;20714;-78
2022/07/24 01:52:12;;;;;;;964.80;877.90;;;21.60;99.90;;;;;;4998867;28;20276;-78
2022/07/24 01:54:39;;;;;;;962.47;875.95;;;21.60;99.90;;;;;;4998064;28;20777;-78
2022/07/24 01:57:07;;;;;;;961.85;875.17;;;21.60;99.90;;;;;;5003263;28;20200;-78
2022/07/24 01:59:34;;;;;;;951.60;865.42;;;21.60;99.90;;;;;;5003251;28;20659;-79
2022/07/24 02:02:00;;;;;;;953.92;867.72;;;21.60;99.90;;;;;;5007897;28;20232;-79
2022/07/24 02:04:27;;;;;;;958.97;872.78;;;21.60;99.90;;;;;;5008825;28;20196;-78
2022/07/24 02:06:54;;;;;;;954.80;868.83;;;21.50;99.90;;;;;;5010683;28;20203;-79
2022/07/24 02:09:21;;;;;;;947.08;860.90;;;21.50;99.90;;;;;;5009987;28;20534;-78
2022/07/24 02:11:47;;;;;;;945.80;859.80;;;21.50;99.90;;;;;;5004175;28;20731;-77
2022/07/24 02:14:15;;;;;;;939.25;853.55;;;21.50;99.90;;;;;;5008735;28;20214;-76
2022/07/24 02:16:42;;;;;;;942.72;856.80;;;21.50;99.90;;;;;;5010199;28;20200;-79
2022/07/24 02:19:09;;;;;;;957.80;871.50;;;21.50;99.90;;;;;;5009352;28;20222;-78
2022/07/24 02:21:36;;;;;;;952.47;866.28;;;21.50;99.90;;;;;;5011010;28;20303;-79
2022/07/24 02:24:03;;;;;;;946.67;860.60;;;21.40;99.90;;;;;;5005550;28;20201;-78
2022/07/24 02:26:29;;;;;;;934.33;848.75;;;21.40;99.90;;;;;;5002541;28;20586;-81
2022/07/24 02:28:56;;;;;;;936.78;850.92;;;21.40;99.90;;;;;;5009095;28;20207;-81
2022/07/24 02:31:24;;;;;;;950.20;864.22;;;21.40;99.90;;;;;;5008119;28;20216;-81
2022/07/24 02:33:51;;;;;;;951.78;865.80;;;21.40;99.90;;;;;;5009439;28;20214;-81
2022/07/24 02:36:18;;;;;;;951.08;864.92;;;21.40;99.90;;;;;;5005629;28;20292;-82
2022/07/24 02:38:45;;;;;;;942.72;856.72;;;21.40;99.90;;;;;;5005028;28;20210;-82
2022/07/24 02:41:12;;;;;;;943.33;857.33;;;21.30;99.90;;;;;;5009933;28;20664;-82
2022/07/24 02:43:38;;;;;;;952.63;866.53;;;21.30;99.90;;;;;;5003139;28;20208;-83
2022/07/24 02:46:05;;;;;;;939.75;854.05;;;21.30;99.90;;;;;;5009028;28;20665;-81
2022/07/24 02:48:34;;;;;;;929.83;844.20;;;21.30;99.90;;;;;;5008408;28;20289;-81
2022/07/24 02:51:01;;;;;;;939.10;853.22;;;21.30;99.90;;;;;;5003398;28;20447;-79
2022/07/24 02:53:27;;;;;;;932.58;847.15;;;21.20;99.90;;;;;;5003050;28;20213;-78
2022/07/24 02:55:54;;;;;;;949.72;863.55;;;21.20;99.90;;;;;;5007895;28;20201;-79
2022/07/24 02:58:21;;;;;;;944.58;858.67;;;21.20;99.90;;;;;;5008082;28;20211;-79
2022/07/24 03:00:47;;;;;;;930.60;844.70;;;21.20;99.90;;;;;;5008705;28;20194;-79
2022/07/24 03:03:14;;;;;;;936.42;850.88;;;21.20;99.90;;;;;;5003113;28;20228;-78
2022/07/24 03:05:42;;;;;;;936.17;850.47;;;21.20;99.90;;;;;;5000659;28;20207;-79
2022/07/24 03:08:09;;;;;;;943.17;857.17;;;21.20;99.90;;;;;;4997838;28;20209;-78
2022/07/24 03:10:36;;;;;;;932.20;846.67;;;21.10;99.90;;;;;;5008095;28;20246;-78
2022/07/24 03:13:05;;;;;;;927.15;841.60;;;21.10;99.90;;;;;;4999716;28;20206;-77
2022/07/24 03:15:32;;;;;;;939.92;853.78;;;21.10;99.90;;;;;;5008127;28;20199;-78
2022/07/24 03:17:59;;;;;;;933.20;847.85;;;21.10;99.90;;;;;;5006057;28;20565;-78
2022/07/24 03:20:27;;;;;;;923.28;837.92;;;21.10;99.90;;;;;;4998978;28;20204;-78
2022/07/24 03:22:55;;;;;;;929.75;844.45;;;21.10;99.90;;;;;;5006626;28;20226;-78
2022/07/24 03:25:22;;;;;;;934.95;849.25;;;21.10;99.90;;;;;;4998179;28;20204;-79
2022/07/24 03:27:50;;;;;;;935.08;849.72;;;21.10;99.90;;;;;;5006895;28;20591;-79
2022/07/24 03:30:18;;;;;;;922.97;837.80;;;21.10;99.90;;;;;;5005315;28;20313;-80
2022/07/24 03:32:46;;;;;;;917.25;831.92;;;21.00;99.90;;;;;;5005793;28;20658;-80
2022/07/24 03:35:12;;;;;;;920.08;834.90;;;21.00;99.90;;;;;;5008517;28;20314;-79
2022/07/24 03:37:39;;;;;;;929.72;844.22;;;21.00;99.90;;;;;;5007616;28;20206;-80
2022/07/24 03:40:09;;;;;;;920.58;835.38;;;21.00;99.90;;;;;;4995709;28;20651;-79
2022/07/24 03:42:36;;;;;;;932.13;846.45;;;21.00;99.90;;;;;;5006519;28;20199;-79
2022/07/24 03:45:04;;;;;;;913.38;828.13;;;21.00;99.90;;;;;;5002419;28;20225;-80
2022/07/24 03:47:30;;;;;;;921.65;836.22;;;20.90;99.90;;;;;;4999710;28;20680;-78
2022/07/24 03:49:57;;;;;;;921.63;836.10;;;20.90;99.90;;;;;;5008177;28;20223;-79
2022/07/24 03:52:24;;;;;;;932.72;846.75;;;20.90;99.90;;;;;;5002851;28;20715;-79
2022/07/24 03:54:51;;;;;;;923.25;838.00;;;20.90;99.90;;;;;;5000579;28;20210;-79
2022/07/24 03:57:20;;;;;;;911.17;826.03;;;20.90;99.90;;;;;;5005507;28;20608;-79
2022/07/24 03:59:46;;;;;;;926.50;841.00;;;20.90;99.90;;;;;;5002375;28;20204;-80
2022/07/24 04:02:13;;;;;;;924.78;839.50;;;20.90;99.90;;;;;;5001915;28;20589;-80
2022/07/24 04:04:40;;;;;;;930.83;845.45;;;20.90;99.90;;;;;;5000074;28;20673;-78
2022/07/24 04:07:07;;;;;;;926.10;840.83;;;20.90;99.90;;;;;;5008588;28;20213;-78
2022/07/24 04:09:33;;;;;;;908.80;823.92;;;20.90;99.90;;;;;;5008382;28;20571;-79
2022/07/24 04:12:00;;;;;;;911.28;826.50;;;20.80;99.90;;;;;;4999419;28;20216;-78
2022/07/24 04:14:28;;;;;;;915.10;830.13;;;20.80;99.90;;;;;;4998042;28;20200;-79
2022/07/24 04:16:55;;;;;;;910.08;825.17;;;20.80;99.90;;;;;;5007980;28;20495;-78
2022/07/24 04:19:22;;;;;;;910.58;825.55;;;20.80;99.90;;;;;;5008588;28;20201;-79
2022/07/24 04:21:49;;;;;;;922.25;836.75;;;20.80;99.90;;;;;;5008618;28;20200;-78
2022/07/24 04:24:15;;;;;;;920.28;834.55;;;20.80;99.90;;;;;;5004421;28;20202;-78
2022/07/24 04:26:42;;;;;;;926.05;840.25;;;20.80;99.90;;;;;;5013055;28;20213;-78
2022/07/24 04:29:09;;;;;;;910.35;824.67;;;20.80;99.90;;;;;;5009779;28;20205;-78
2022/07/24 04:31:37;;;;;;;914.58;829.20;;;20.80;99.90;;;;;;5004242;28;20721;-79
2022/07/24 04:34:04;;;;;;;923.38;837.80;;;20.80;99.90;;;;;;5010819;28;20220;-78
2022/07/24 04:36:31;;;;;;;935.55;849.38;;;20.80;99.90;;;;;;5012136;28;20206;-79
2022/07/24 04:38:58;;;;;;;914.58;829.22;;;20.80;99.90;;;;;;5009902;28;20527;-79
2022/07/24 04:41:25;;;;;;;915.28;829.70;;;20.80;99.90;;;;;;5012434;28;20203;-78
2022/07/24 04:43:52;;;;;;;925.88;840.30;;;20.80;99.90;;;;;;5008627;28;20211;-79
2022/07/24 04:46:19;;;;;;;906.70;821.45;;;20.80;99.90;;;;;;5007209;28;20195;-78
2022/07/24 04:48:47;;;;;;;912.67;827.28;;;20.80;99.90;;;;;;5004846;28;20204;-77
2022/07/24 04:51:14;;;;;;;913.33;827.88;;;20.80;99.90;;;;;;5012061;28;20222;-79
2022/07/24 04:53:41;;;;;;;928.22;842.40;;;20.80;99.90;;;;;;5004338;28;20282;-78
2022/07/24 04:56:08;;;;;;;916.20;830.63;;;20.80;99.90;;;;;;5002524;28;20211;-78
2022/07/24 04:58:35;;;;;;;931.03;844.75;;;20.70;99.90;;;;;;5011924;28;20202;-78
2022/07/24 05:01:02;;;;;;;915.38;829.78;;;20.70;99.90;;;;;;5008366;28;20199;-79
2022/07/24 05:03:28;;;;;;;913.83;828.25;;;20.70;99.90;;;;;;4998973;28;20227;-78
2022/07/24 05:05:56;;;;;;;908.78;823.60;;;20.70;99.90;;;;;;5012356;28;20196;-78
2022/07/24 05:08:23;;;;;;;910.92;825.63;;;20.70;99.90;;;;;;5011795;28;20208;-78
2022/07/24 05:10:50;;;;;;;917.30;831.72;;;20.70;99.90;;;;;;4998476;28;20595;-79
2022/07/24 05:13:17;;;;;;;929.58;843.97;;;20.70;99.90;;;;;;5011690;28;20576;-80
2022/07/24 05:15:44;;;;;;;909.08;823.80;;;20.70;99.90;;;;;;5007608;28;20505;-80
2022/07/24 05:18:10;;;;;;;922.85;837.28;;;20.70;99.90;;;;;;5006704;28;20208;-79
2022/07/24 05:20:37;;;;;;;917.13;831.85;;;20.70;99.90;;;;;;5011430;28;20205;-80
2022/07/24 05:23:05;;;;;;;921.70;836.10;;;20.70;99.90;;;;;;5003103;28;20206;-80
2022/07/24 05:25:32;;;;;;;923.30;837.65;;;20.70;99.90;;;;;;5003249;28;20291;-80
2022/07/24 05:27:59;;;;;;;920.70;835.53;;;20.70;99.90;;;;;;5000326;28;20200;-80
2022/07/24 05:30:26;;;;;;;900.08;815.17;;;20.70;99.90;;;;;;5002989;28;20199;-79
2022/07/24 05:32:52;;;;;;;920.25;834.72;;;20.80;99.90;;;;;;5007533;28;20242;-79
2022/07/24 05:35:19;;;;;;;899.60;814.75;;;20.80;99.90;;;;;;5001784;28;20207;-79
2022/07/24 05:37:46;;;;;;;912.67;827.78;;;20.80;99.90;;;;;;5007986;28;20674;-79
2022/07/24 05:40:14;;;;;;;910.15;825.10;;;20.80;99.90;;;;;;4999980;28;20669;-79
2022/07/24 05:42:41;;;;;;;913.63;828.63;;;20.90;99.90;;;;;;5006653;28;20203;-79
2022/07/24 05:45:09;;;;;;;902.88;818.28;;;21.00;99.90;;;;;;5009265;28;20675;-79
2022/07/24 05:47:37;;;;;;;929.70;843.90;;;21.10;99.90;;;;;;5001460;28;20205;-79
2022/07/24 05:50:06;;;;;;;942.05;855.92;;;21.30;99.90;;;;;;5002444;28;20258;-78
2022/07/24 05:52:33;;;;;;;951.10;864.28;;;21.40;99.90;;;;;;5007845;28;20216;-79
2022/07/24 05:55:00;;;;;;;947.03;860.55;;;21.60;99.90;;;;;;5002541;28;20564;-77
2022/07/24 05:57:28;;;;;;;968.50;881.30;;;21.80;99.90;;;;;;5006478;28;20197;-79
2022/07/24 05:59:55;;;;;;;957.45;871.00;;;21.90;99.90;;;;;;5002014;28;20200;-77
2022/07/24 06:02:21;;;;;;;972.78;885.90;;;22.10;99.90;;;;;;4999225;28;20744;-79
2022/07/24 06:04:48;;;;;;;976.13;888.85;;;22.20;99.90;;;;;;5006903;28;20215;-80
2022/07/24 06:07:15;;;;;;;985.60;898.33;;;22.30;99.90;;;;;;5010915;28;20212;-79
2022/07/24 06:09:42;;;;;;;982.22;895.03;;;22.40;99.90;;;;;;5008580;28;20204;-79
2022/07/24 06:12:09;;;;;;;992.38;904.58;;;22.60;99.90;;;;;;5004004;28;20216;-80
2022/07/24 06:14:37;;;;;;;995.63;907.88;;;22.60;99.90;;;;;;5010651;28;20592;-79
2022/07/24 06:17:04;;;;;;;992.63;905.13;;;22.70;99.90;;;;;;5008580;28;20208;-80
2022/07/24 06:19:31;;;;;;;994.85;907.47;;;22.80;99.90;;;;;;5006996;28;20208;-79
2022/07/24 06:21:57;;;;;;;989.90;902.55;;;22.90;99.90;;;;;;5007530;28;20292;-78
2022/07/24 06:24:24;;;;;;;1003.30;915.40;;;23.00;99.90;;;;;;5009307;28;20200;-79
2022/07/24 06:26:51;;;;;;;1019.65;930.92;;;23.10;99.90;;;;;;5010055;28;20211;-79
2022/07/24 06:29:18;;;;;;;1023.10;934.50;;;23.20;99.90;;;;;;5005390;28;20572;-80
2022/07/24 06:31:46;;;;;;;1027.80;939.65;;;23.30;99.90;;;;;;5007724;28;20212;-80
2022/07/24 06:34:13;;;;;;;1011.47;923.33;;;23.40;99.90;;;;;;4996904;28;20197;-80
2022/07/24 06:36:40;;;;;;;1029.15;940.25;;;23.50;99.90;;;;;;5002955;28;20201;-80
2022/07/24 06:39:06;;;;;;;1033.00;943.92;;;23.60;99.90;;;;;;5000273;28;20576;-81
2022/07/24 06:41:33;;;;;;;1042.07;952.92;;;23.70;99.90;;;;;;5003363;28;20277;-80
2022/07/24 06:44:00;;;;;;;1036.97;947.90;;;23.90;99.90;;;;;;5011748;28;20563;-79
2022/07/24 06:46:27;;;;;;;1054.60;964.83;;;24.00;99.90;;;;;;5002604;28;20481;-80
2022/07/24 06:48:55;;;;;;;1050.13;960.53;;;24.10;99.90;;;;;;5008775;28;20860;-79
2022/07/24 06:51:22;;;;;;;1047.27;957.80;;;24.20;99.90;;;;;;4995392;28;20483;-79
2022/07/24 06:53:48;;;;;;;1058.90;969.03;;;24.30;99.90;;;;;;5007239;28;20462;-81
2022/07/24 06:56:15;;;;;;;1055.83;966.10;;;24.40;99.90;;;;;;5003572;28;20455;-78
2022/07/24 06:58:42;;;;;;;1047.70;958.03;;;24.50;99.90;;;;;;5008502;28;20467;-79
2022/07/24 07:01:09;;;;;;;1063.30;973.03;;;24.50;99.90;;;;;;4999853;28;20823;-79
2022/07/24 07:03:36;;;;;;;1069.03;978.77;;;24.60;99.90;;;;;;5001178;28;20487;-79
2022/07/24 07:06:04;;;;;;;1071.53;980.93;;;24.70;99.90;;;;;;5009555;28;20474;-78
2022/07/24 07:08:31;;;;;;;1071.03;980.67;;;24.80;99.90;;;;;;5009967;28;20822;-80
2022/07/24 07:10:58;;;;;;;1065.43;975.33;;;24.80;99.90;;;;;;4992545;28;20452;-81
2022/07/24 07:13:24;;;;;;;1076.57;986.17;;;24.90;99.90;;;;;;5007717;28;20493;-81
2022/07/24 07:15:51;;;;;;;1081.23;990.53;;;25.00;99.90;;;;;;4998532;28;20459;-81
2022/07/24 07:18:18;;;;;;;1083.17;992.37;;;25.10;99.90;;;;;;5008350;28;20456;-80
2022/07/24 07:20:45;;;;;;;1092.47;998.30;;;25.10;99.90;;;;;;4994377;28;20419;-80
2022/07/24 07:23:13;;;;;;;1073.57;983.00;;;25.20;99.90;;;;;;5005229;28;20958;-80
2022/07/24 07:25:40;;;;;;;1078.03;987.23;;;25.30;99.90;;;;;;5009903;28;20470;-80
2022/07/24 07:28:06;;;;;;;1088.10;995.87;;;25.30;99.90;;;;;;5009410;28;20482;-80
2022/07/24 07:30:33;;;;;;;1087.80;995.53;;;25.40;99.80;;;;;;5007737;28;20478;-81
2022/07/24 07:33:00;;;;;;;1095.60;998.97;;;25.50;99.60;;;;;;5008677;28;20498;-81
2022/07/24 07:35:26;;;;;;;1092.23;998.00;;;25.60;99.40;;;;;;5009304;28;20955;-80
2022/07/24 07:37:53;;;;;;;1089.30;996.33;;;25.70;99.20;;;;;;5001635;28;20456;-80
2022/07/24 07:40:21;;;;;;;1101.23;999.90;;;25.70;99.00;;;;;;4997769;28;20574;-79
2022/07/24 07:42:48;;;;;;;1102.00;999.90;;;25.80;98.80;;;;;;5003711;28;20452;-80
2022/07/24 07:45:15;;;;;;;1104.80;999.90;;;25.80;98.60;;;;;;5006381;28;20487;-78
2022/07/24 07:47:42;;;;;;;1116.50;999.90;;;25.90;98.40;;;;;;5007170;28;20447;-82
2022/07/24 07:50:10;;;;;;;1118.40;999.90;;;26.00;98.20;;;;;;5000571;28;21049;-79
2022/07/24 07:52:36;;;;;;;1115.37;999.90;;;26.10;98.00;;;;;;5001789;28;20479;-80
2022/07/24 07:55:04;;;;;;;1120.33;999.90;;;26.10;97.80;;;;;;5003503;28;20464;-81
2022/07/24 07:57:33;;;;;;;1123.13;999.90;;;26.20;97.50;;;;;;5007434;28;20818;-80
2022/07/24 08:00:00;;;;;;;1118.00;999.90;;;26.20;97.40;;;;;;5011181;28;20464;-81
2022/07/24 08:02:29;;;;;;;1114.67;999.90;;;26.30;97.30;;;;;;5011309;28;20474;-80
2022/07/24 08:04:56;;;;;;;1119.30;999.90;;;26.30;97.10;;;;;;5005621;28;20514;-81
2022/07/24 08:07:22;;;;;;;1124.60;999.90;;;26.40;96.90;;;;;;5013705;28;20467;-79
2022/07/24 08:09:49;;;;;;;1121.53;999.90;;;26.50;96.80;;;;;;5011558;28;20455;-79
2022/07/24 08:12:16;;;;;;;1131.53;999.90;;;26.60;96.60;;;;;;5004667;28;20479;-81
2022/07/24 08:14:44;;;;;;;1129.07;999.90;;;26.60;96.30;;;;;;5011577;28;20466;-80
2022/07/24 08:17:11;;;;;;;1125.00;999.90;;;26.70;96.10;;;;;;5012843;28;20533;-82
2022/07/24 08:19:38;;;;;;;1120.53;999.90;;;26.70;95.90;;;;;;5007518;28;20969;-82
2022/07/24 08:22:05;;;;;;;1137.77;999.90;;;26.70;95.80;;;;;;5012502;28;20989;-79
2022/07/24 08:24:32;;;;;;;1139.67;999.90;;;26.80;95.70;;;;;;5011411;28;20958;-79
2022/07/24 08:27:00;;;;;;;1139.03;999.90;;;26.80;95.60;;;;;;5014323;28;20439;-79
2022/07/24 08:29:26;;;;;;;1146.63;999.90;;;26.90;95.50;;;;;;5012055;28;20841;-81
2022/07/24 08:31:55;;;;;;;1136.67;999.90;;;26.90;95.30;;;;;;5010577;28;20481;-79
2022/07/24 08:34:21;;;;;;;1150.10;999.90;;;27.00;95.20;;;;;;5013142;28;20465;-81
2022/07/24 08:36:48;;;;;;;1139.40;999.90;;;27.00;95.10;;;;;;5007487;28;20787;-80
2022/07/24 08:39:16;;;;;;;1136.27;999.90;;;27.00;94.90;;;;;;5003783;28;20467;-80
2022/07/24 08:41:43;;;;;;;1136.63;999.90;;;27.10;94.90;;;;;;5009005;28;20842;-81
2022/07/24 08:44:11;;;;;;;1149.53;999.90;;;27.10;94.80;;;;;;5006884;28;20459;-80
2022/07/24 08:46:39;;;;;;;1141.27;999.90;;;27.10;94.80;;;;;;5011267;28;20435;-79
2022/07/24 08:49:10;;;;;;;1150.93;999.90;;;27.10;94.70;;;;;;4997468;28;20481;-79
2022/07/24 08:51:39;;;;;;;1147.17;999.90;;;27.10;94.70;;;;;;5011434;28;20486;-81
2022/07/24 08:54:06;;;;;;;1143.93;999.90;;;27.20;94.70;;;;;;5010504;28;20503;-79
2022/07/24 08:56:36;;;;;;;1165.03;999.90;;;27.20;94.60;;;;;;5005905;28;20435;-78
2022/07/24 08:59:03;;;;;;;1149.90;999.90;;;27.30;94.60;;;;;;5000087;28;20794;-78
2022/07/24 09:01:29;;;;;;;1140.33;999.90;;;27.30;94.60;;;;;;5008636;28;20554;-81
2022/07/24 09:03:56;;;;;;;1162.83;999.90;;;27.30;94.50;;;;;;5010100;28;21068;-79
2022/07/24 09:06:24;;;;;;;1150.00;999.90;;;27.30;94.40;;;;;;5011214;28;20462;-80
2022/07/24 09:09:00;;;;;;;1160.17;999.90;;;27.30;94.30;;;;;;5011041;28;20467;-80
2022/07/24 09:11:28;;;;;;;1163.03;999.90;;;27.30;94.30;;;;;;5004539;28;20475;-81
2022/07/24 09:16:45;;;;;;;1155.27;999.90;;;27.30;94.30;;;;;;5006617;28;20466;-80
2022/07/24 09:19:13;;;;;;;1157.63;999.90;;;27.30;94.20;;;;;;5006314;28;20459;-79
2022/07/24 09:21:44;;;;;;;1160.63;999.90;;;27.30;94.30;;;;;;5011291;28;20970;-80
2022/07/24 09:24:16;;;;;;;1150.23;999.90;;;27.30;94.30;;;;;;5005919;28;20874;-79
2022/07/24 09:26:47;;;;;;;1149.97;999.90;;;27.30;94.30;;;;;;5000856;28;20468;-77
2022/07/24 09:29:15;;;;;;;1149.57;999.90;;;27.30;94.40;;;;;;5008960;28;20467;-84
2022/07/24 09:31:52;;;;;;;1147.20;999.90;;;27.30;94.40;;;;;;5004097;28;20491;-84
2022/07/24 09:34:19;;;;;;;1151.63;999.90;;;27.30;94.50;;;;;;5010756;28;20481;-86
2022/07/24 09:36:58;;;;;;;1158.53;999.90;;;27.30;94.40;;;;;;5006525;28;20486;-84
2022/07/24 09:39:25;;;;;;;1149.00;999.90;;;27.30;94.40;;;;;;4998473;28;20939;-84
2022/07/24 09:41:54;;;;;;;1155.27;999.90;;;27.20;94.40;;;;;;5005973;28;20517;-87
2022/07/24 09:44:22;;;;;;;1145.27;999.90;;;27.20;94.40;;;;;;5003326;28;20468;-82
2022/07/24 09:46:55;;;;;;;1161.30;999.90;;;27.20;94.40;;;;;;5003152;28;20471;-83
2022/07/24 09:49:23;;;;;;;1149.37;999.90;;;27.20;94.40;;;;;;5008346;28;20470;-83
2022/07/24 09:52:10;;;;;;;1142.27;999.90;;;27.20;94.40;;;;;;5006527;28;20667;-82
2022/07/24 09:54:39;;;;;;;1145.50;999.90;;;27.20;94.50;;;;;;5010851;28;20931;-84
2022/07/24 09:57:23;;;;;;;1144.17;999.90;;;27.20;94.60;;;;;;5003880;28;20463;-82
2022/07/24 09:59:52;;;;;;;1143.43;999.90;;;27.20;94.50;;;;;;5008634;28;20451;-84
2022/07/24 10:02:20;;;;;;;1141.77;999.90;;;27.20;94.60;;;;;;5004267;28;20542;-82
2022/07/24 10:04:49;;;;;;;1139.23;999.90;;;27.10;94.60;;;;;;5007406;28;20804;-83
2022/07/24 10:07:19;;;;;;;1140.10;999.90;;;27.10;94.70;;;;;;5012668;28;20438;-84
2022/07/24 10:09:49;;;;;;;1147.60;999.90;;;27.10;94.70;;;;;;5007599;28;20474;-81
2022/07/24 10:12:18;;;;;;;1141.17;999.90;;;27.10;94.50;;;;;;5012038;28;20527;-82
2022/07/24 10:14:46;;;;;;;1142.70;999.90;;;27.10;94.70;;;;;;5007666;28;20835;-81
2022/07/24 10:17:15;;;;;;;1148.30;999.90;;;27.10;94.70;;;;;;5009369;28;21049;-85
2022/07/24 10:19:45;;;;;;;1144.43;999.90;;;27.10;94.70;;;;;;5002569;28;20465;-81
2022/07/24 10:22:14;;;;;;;1139.93;999.90;;;27.10;94.80;;;;;;5009723;28;20438;-84
2022/07/24 10:25:05;;;;;;;1140.13;999.90;;;27.10;94.80;;;;;;5005537;28;20542;-82
2022/07/24 10:27:34;;;;;;;1127.03;999.90;;;27.10;94.60;;;;;;4998573;28;20826;-81
2022/07/24 10:30:04;;;;;;;1139.03;999.90;;;27.10;94.80;;;;;;5008399;28;20459;-82
2022/07/24 10:32:32;;;;;;;1135.20;999.90;;;27.00;94.80;;;;;;5005908;28;20479;-81
2022/07/24 10:35:09;;;;;;;1136.17;999.90;;;27.00;94.80;;;;;;5007020;28;20448;-84
2022/07/24 10:37:44;;;;;;;1142.47;999.90;;;27.00;94.90;;;;;;5011351;28;20981;-83
2022/07/24 10:40:21;;;;;;;1129.37;999.90;;;27.00;94.80;;;;;;5009257;28;20466;-83
2022/07/24 10:43:13;;;;;;;1132.70;999.90;;;27.00;94.60;;;;;;5008763;28;20454;-85
2022/07/24 10:46:11;;;;;;;1130.67;999.90;;;27.00;94.80;;;;;;5001332;28;20414;-80
2022/07/24 10:48:40;;;;;;;1125.87;999.90;;;27.00;94.80;;;;;;5001298;28;20463;-84
2022/07/24 10:51:10;;;;;;;1120.03;999.90;;;27.00;94.80;;;;;;5003268;28;20940;-81
2022/07/24 10:53:56;;;;;;;1127.43;999.90;;;27.00;94.90;;;;;;5005424;28;20514;-85
2022/07/24 10:56:27;;;;;;;1131.40;999.90;;;27.00;95.00;;;;;;5003663;28;20909;-84
2022/07/24 10:58:56;;;;;;;1122.07;999.90;;;27.00;94.90;;;;;;5005803;28;20535;-82
2022/07/24 11:01:36;;;;;;;1133.03;999.90;;;27.00;94.90;;;;;;4998505;28;20411;-82
2022/07/24 11:04:04;;;;;;;1134.50;999.90;;;26.90;94.90;;;;;;5002827;28;20460;-83
2022/07/24 11:06:43;;;;;;;1140.73;999.90;;;27.00;94.80;;;;;;4999383;28;20425;-82
2022/07/24 11:09:10;;;;;;;1116.37;999.90;;;27.00;95.00;;;;;;5006947;28;20473;-84
2022/07/24 11:11:43;;;;;;;1129.53;999.90;;;27.00;94.90;;;;;;5008148;28;20454;-83
2022/07/24 11:14:11;;;;;;;1127.23;999.90;;;27.00;94.90;;;;;;5001543;28;20491;-82
2022/07/24 11:16:38;;;;;;;1130.03;999.90;;;26.90;94.90;;;;;;5003370;28;21001;-81
2022/07/24 11:19:31;;;;;;;1124.07;999.90;;;27.00;94.90;;;;;;5002991;28;20495;-83
2022/07/24 11:22:09;;;;;;;1125.27;999.90;;;27.00;95.10;;;;;;5002515;28;20510;-84
2022/07/24 11:24:40;;;;;;;1114.47;999.90;;;27.00;94.80;;;;;;4998917;28;20430;-81
2022/07/24 11:27:16;;;;;;;1122.17;999.90;;;27.00;94.70;;;;;;4998734;28;20471;-85
2022/07/24 11:29:43;;;;;;;1129.03;999.90;;;27.00;94.70;;;;;;5002323;28;20442;-82
2022/07/24 11:32:14;;;;;;;1124.33;999.90;;;27.00;95.00;;;;;;5010964;28;20442;-83
2022/07/24 11:34:44;;;;;;;1129.33;999.90;;;27.00;94.60;;;;;;5010726;28;20586;-83
2022/07/24 11:37:11;;;;;;;1135.90;999.90;;;27.00;94.50;;;;;;5011009;28;20446;-84
2022/07/24 11:39:40;;;;;;;1127.37;999.90;;;27.00;94.40;;;;;;5008524;28;20499;-84
2022/07/24 11:42:09;;;;;;;1129.43;999.90;;;27.00;94.40;;;;;;5003633;28;20942;-83
2022/07/24 11:44:40;;;;;;;1130.30;999.90;;;27.00;94.30;;;;;;5002027;28;20447;-82
2022/07/24 11:47:10;;;;;;;1129.90;999.90;;;27.00;94.40;;;;;;5000326;28;20541;-84
2022/07/24 11:49:42;;;;;;;1124.17;999.90;;;26.90;94.30;;;;;;5010534;28;20458;-82
2022/07/24 11:52:14;;;;;;;1135.70;999.90;;;26.90;94.10;;;;;;5003857;28;20901;-82
2022/07/24 11:54:42;;;;;;;1125.67;999.90;;;26.90;94.10;;;;;;5011955;28;20874;-85
2022/07/24 11:57:19;;;;;;;1132.10;999.90;;;26.90;94.00;;;;;;5009089;28;20467;-84
2022/07/24 11:59:48;;;;;;;1134.87;999.90;;;26.90;94.20;;;;;;5008392;28;20529;-83
2022/07/24 12:02:14;;;;;;;1122.33;999.90;;;26.90;94.20;;;;;;5002697;28;20896;-82
2022/07/24 12:04:42;;;;;;;1137.77;999.90;;;26.90;94.00;;;;;;4997553;28;20461;-84
2022/07/24 12:07:11;;;;;;;1136.87;999.90;;;26.90;94.10;;;;;;5010978;28;20454;-83
2022/07/24 12:09:45;;;;;;;1127.90;999.90;;;26.90;94.10;;;;;;5003615;28;20964;-83
2022/07/24 12:12:21;;;;;;;1121.80;999.90;;;26.90;94.10;;;;;;5009643;28;20643;-83